Terminal Aerodrome Forecast
Issued by NWS Cleveland, OH

Home | Current Version | Previous Version | Graphics & Text | Print | Product List | Glossary Off
Versions: 1 2 3 4 5 6 7 8 9 10 11 12 13

000
FTUS41 KCLE 232329
TAFERI
TAF
KERI 232329Z 2400/2424 36005KT P6SM OVC200
     FM240400 09004KT P6SM SKC
     FM241500 06010G20KT P6SM SKC
     FM241900 06015G25KT P6SM SCT250
     FM242300 06012KT P6SM OVC250=

USA.gov is the U.S. government's official web portal to all federal, state and local government web resources and services.